Terminal Aerodrome Forecast
Issued by NWS Cleveland, OH

Home | Current Version | Previous Version | Text Only | Print | Product List | Glossary On
Versions: 1 2 3 4 5 6 7 8 9 10 11 12 13 14 15 16 17 18 19 20 21 22 23
000
FTUS41 KCLE 241956 AAC
TAFMFD
TAF AMD
KMFD 241956Z 2420/2518 28012KT P6SM VCSH SCT035 BKN080
      TEMPO 2420/2422 5SM SHRA BKN025
     FM242200 18005KT P6SM SCT040 BKN100
     FM251100 22006KT P6SM VCTS BKN035CB OVC080
     FM251500 26010KT P6SM SCT035 BKN100=

USA.gov is the U.S. government's official web portal to all federal, state and local government web resources and services.